Terminal Aerodrome Forecast
Issued by NWS

Home | Current Version | Previous Version | Graphics & Text | Print | Product List | Glossary On
Versions: 1 2 3 4 5 6 7 8 9 10 11 12 13 14 15 16 17 18 19
000
FTUS43 KMPX 252049 AAA
TAFRWF
TAF AMD
KRWF 252049Z 2521/2618 03005KT P6SM BKN016
     FM252200 34003KT P6SM SCT018
      TEMPO 2522/2524 BKN015
     FM260000 18006KT P6SM OVC015
     FM260900 19013KT P6SM BKN008 OVC030
     FM261400 29012KT P6SM SCT010 BKN040=

USA.gov is the U.S. government's official web portal to all federal, state and local government web resources and services.